createdAt,value
2022-10-17T00:00:35.198Z,17.76
2022-10-17T00:03:08.533Z,17.74
2022-10-17T00:05:35.086Z,17.71
2022-10-17T00:08:01.639Z,17.71
2022-10-17T00:10:28.164Z,17.71
2022-10-17T00:12:54.668Z,17.71
2022-10-17T00:15:22.473Z,17.69
2022-10-17T00:17:49.017Z,17.71
2022-10-17T00:20:15.918Z,17.74
2022-10-17T00:22:42.687Z,17.75
2022-10-17T00:25:09.523Z,17.76
2022-10-17T00:27:40.964Z,17.76
2022-10-17T00:30:11.151Z,17.75
2022-10-17T00:32:37.861Z,17.75
2022-10-17T00:35:05.003Z,17.76
2022-10-17T00:37:32.217Z,17.77
2022-10-17T00:39:59.308Z,17.78
2022-10-17T00:42:26.970Z,17.79
2022-10-17T00:45:12.789Z,17.76
2022-10-17T00:47:39.752Z,17.75
2022-10-17T00:50:07.094Z,17.78
2022-10-17T00:52:34.424Z,17.79
2022-10-17T00:55:10.620Z,17.82
2022-10-17T00:57:37.418Z,17.85
2022-10-17T01:00:07.912Z,17.88
2022-10-17T01:02:34.486Z,17.87
2022-10-17T01:05:01.150Z,17.87
2022-10-17T01:07:31.911Z,17.84
2022-10-17T01:10:01.865Z,17.82
2022-10-17T01:12:39.004Z,17.80
2022-10-17T01:15:21.668Z,17.79
2022-10-17T01:18:11.545Z,17.78
2022-10-17T01:20:53.193Z,17.76
2022-10-17T01:23:50.733Z,17.74
2022-10-17T01:26:35.332Z,17.70
2022-10-17T01:29:28.087Z,17.70
2022-10-17T01:32:02.469Z,17.71
2022-10-17T01:34:38.044Z,17.70
2022-10-17T01:37:08.657Z,17.71
2022-10-17T01:39:51.985Z,17.71
2022-10-17T01:42:18.459Z,17.71
2022-10-17T01:44:54.216Z,17.72
2022-10-17T01:47:23.036Z,17.72
2022-10-17T01:49:51.736Z,17.72
2022-10-17T01:52:25.432Z,17.72
2022-10-17T01:54:59.794Z,17.70
2022-10-17T01:57:37.150Z,17.71
2022-10-17T02:00:07.123Z,17.73
2022-10-17T02:02:34.171Z,17.76
2022-10-17T02:07:33.488Z,17.77
2022-10-17T02:10:00.057Z,17.75
2022-10-17T02:12:34.589Z,17.75
2022-10-17T02:15:20.109Z,17.76
2022-10-17T02:17:49.547Z,17.77
2022-10-17T02:20:35.730Z,17.78
2022-10-17T02:23:20.842Z,17.79
2022-10-17T02:26:06.299Z,17.79
2022-10-17T02:28:45.125Z,17.78
2022-10-17T02:31:17.167Z,17.76
2022-10-17T02:33:59.925Z,17.71
2022-10-17T02:36:30.871Z,17.68
2022-10-17T02:38:58.101Z,17.67
2022-10-17T02:41:25.058Z,17.65
2022-10-17T02:43:53.434Z,17.67
2022-10-17T02:46:22.394Z,17.68
2022-10-17T02:48:51.659Z,17.68
2022-10-17T02:51:37.168Z,17.67
2022-10-17T02:54:16.327Z,17.68
2022-10-17T02:56:48.621Z,17.68
2022-10-17T02:59:17.613Z,17.67
2022-10-17T03:01:44.310Z,17.65
2022-10-17T03:04:13.428Z,17.67
2022-10-17T03:06:41.145Z,17.62
2022-10-17T03:09:08.106Z,17.59
2022-10-17T03:11:34.756Z,17.58
2022-10-17T03:14:01.255Z,17.59
2022-10-17T03:16:27.818Z,17.60
2022-10-17T03:18:54.321Z,17.58
2022-10-17T03:21:20.863Z,17.56
2022-10-17T03:23:47.404Z,17.57
2022-10-17T03:26:13.993Z,17.60
2022-10-17T03:28:40.536Z,17.61
2022-10-17T03:31:12.981Z,17.61
2022-10-17T03:33:39.501Z,17.61
2022-10-17T03:36:10.490Z,17.59
2022-10-17T03:38:38.647Z,17.58
2022-10-17T03:41:06.013Z,17.59
2022-10-17T03:43:32.612Z,17.58
2022-10-17T03:45:59.939Z,17.58
2022-10-17T03:48:27.321Z,17.57
2022-10-17T03:51:05.632Z,17.58
2022-10-17T03:53:32.408Z,17.54
2022-10-17T03:56:13.084Z,17.52
2022-10-17T03:58:40.436Z,17.51
2022-10-17T04:01:11.778Z,17.52
2022-10-17T04:03:38.564Z,17.51
2022-10-17T04:06:05.892Z,17.49
2022-10-17T04:08:33.287Z,17.48
2022-10-17T04:11:04.490Z,17.49
2022-10-17T04:13:31.175Z,17.51
2022-10-17T04:16:02.485Z,17.53
2022-10-17T04:18:29.261Z,17.52
2022-10-17T04:20:55.800Z,17.52
2022-10-17T04:23:22.633Z,17.51
2022-10-17T04:25:49.491Z,17.50
2022-10-17T04:28:16.330Z,17.50
2022-10-17T04:30:45.462Z,17.50
2022-10-17T04:33:12.235Z,17.48
2022-10-17T04:35:38.857Z,17.47
2022-10-17T04:38:05.365Z,17.45
2022-10-17T04:40:31.933Z,17.42
2022-10-17T04:42:58.513Z,17.41
2022-10-17T04:45:25.050Z,17.41
2022-10-17T04:47:51.557Z,17.41
2022-10-17T04:50:18.760Z,17.42
2022-10-17T04:52:45.246Z,17.42
2022-10-17T04:55:11.741Z,17.41
2022-10-17T04:57:38.318Z,17.39
2022-10-17T05:00:05.382Z,17.39
2022-10-17T05:02:32.145Z,17.41
2022-10-17T05:04:58.767Z,17.44
2022-10-17T05:07:25.262Z,17.47
2022-10-17T05:09:51.798Z,17.48
2022-10-17T05:12:18.326Z,17.49
2022-10-17T05:14:44.831Z,17.48
2022-10-17T05:17:11.328Z,17.49
2022-10-17T05:19:38.083Z,17.47
2022-10-17T05:22:04.605Z,17.47
2022-10-17T05:24:31.101Z,17.46
2022-10-17T05:26:57.640Z,17.42
2022-10-17T05:29:24.229Z,17.39
2022-10-17T05:31:50.803Z,17.40
2022-10-17T05:34:17.378Z,17.38
2022-10-17T05:36:43.877Z,17.38
2022-10-17T05:39:13.539Z,17.38
2022-10-17T05:41:40.093Z,17.38
2022-10-17T05:44:06.612Z,17.39
2022-10-17T05:46:33.132Z,17.41
2022-10-17T05:48:59.629Z,17.44
2022-10-17T05:51:26.465Z,17.47
2022-10-17T05:53:53.041Z,17.48
2022-10-17T05:56:20.385Z,17.51
2022-10-17T05:58:53.245Z,17.54
2022-10-17T06:01:21.661Z,17.57
2022-10-17T06:03:48.208Z,17.59
2022-10-17T06:06:15.597Z,17.64
2022-10-17T06:08:42.848Z,17.67
2022-10-17T06:11:10.515Z,17.69
2022-10-17T06:13:37.765Z,17.72
2022-10-17T06:16:04.844Z,17.76
2022-10-17T06:18:31.354Z,17.77
2022-10-17T06:21:10.200Z,17.79
2022-10-17T06:23:36.924Z,17.82
2022-10-17T06:26:05.444Z,17.83
2022-10-17T06:28:32.322Z,17.83
2022-10-17T06:30:58.878Z,17.84
2022-10-17T06:33:25.427Z,17.86
2022-10-17T06:35:53.350Z,17.89
2022-10-17T06:38:20.169Z,17.96
2022-10-17T06:40:46.781Z,17.99
2022-10-17T06:43:13.757Z,18.04
2022-10-17T06:45:40.644Z,18.12
2022-10-17T06:48:07.477Z,18.15
2022-10-17T06:50:34.271Z,18.19
2022-10-17T06:53:00.774Z,18.24
2022-10-17T06:55:27.292Z,18.29
2022-10-17T06:57:56.983Z,18.33
2022-10-17T07:00:23.712Z,18.35
2022-10-17T07:02:50.461Z,18.39
2022-10-17T07:05:17.343Z,18.46
2022-10-17T07:07:45.521Z,18.53
2022-10-17T07:10:13.974Z,18.62
2022-10-17T07:12:40.530Z,18.70
2022-10-17T07:15:07.539Z,18.80
2022-10-17T07:17:34.182Z,18.89
2022-10-17T07:20:00.728Z,18.96
2022-10-17T07:22:27.318Z,19.05
2022-10-17T07:24:53.841Z,19.15
2022-10-17T07:27:20.355Z,19.22
2022-10-17T07:29:46.852Z,19.30
2022-10-17T07:32:13.333Z,19.38
2022-10-17T07:34:39.861Z,19.45
2022-10-17T07:37:07.404Z,19.53
2022-10-17T07:39:35.676Z,19.58
2022-10-17T07:42:02.282Z,19.67
2022-10-17T07:44:28.849Z,19.75
2022-10-17T07:46:55.360Z,19.83
2022-10-17T07:49:21.891Z,19.92
2022-10-17T07:51:48.704Z,20.00
2022-10-17T07:54:15.308Z,20.11
2022-10-17T07:56:41.846Z,20.21
2022-10-17T07:59:09.536Z,20.30
2022-10-17T08:01:36.993Z,20.40
2022-10-17T08:04:03.693Z,20.52
2022-10-17T08:06:30.227Z,20.64
2022-10-17T08:08:58.008Z,20.75
2022-10-17T08:11:25.423Z,20.85
2022-10-17T08:13:52.026Z,20.97
2022-10-17T08:16:18.606Z,21.12
2022-10-17T08:18:45.132Z,21.27
2022-10-17T08:21:13.239Z,21.42
2022-10-17T08:23:40.396Z,21.49
2022-10-17T08:26:10.468Z,21.51
2022-10-17T08:28:38.677Z,21.51
2022-10-17T08:31:11.315Z,21.53
2022-10-17T08:33:37.888Z,21.59
2022-10-17T08:36:05.588Z,21.67
2022-10-17T08:38:36.940Z,21.80
2022-10-17T08:41:07.817Z,21.92
2022-10-17T08:43:40.179Z,22.04
2022-10-17T08:46:09.054Z,22.10
2022-10-17T08:48:45.505Z,22.16
2022-10-17T08:51:21.614Z,22.19
2022-10-17T08:54:00.628Z,22.19
2022-10-17T08:56:49.622Z,22.19
2022-10-17T08:59:20.374Z,22.22
2022-10-17T09:02:19.328Z,22.21
2022-10-17T09:05:02.103Z,22.20
2022-10-17T09:07:42.119Z,22.20
2022-10-17T09:10:23.814Z,22.19
2022-10-17T09:13:23.168Z,22.08
2022-10-17T09:15:55.649Z,22.00
2022-10-17T09:18:28.504Z,21.96
2022-10-17T09:20:59.378Z,21.94
2022-10-17T09:23:28.960Z,21.93
2022-10-17T09:25:58.661Z,21.94
2022-10-17T09:28:31.442Z,21.94
2022-10-17T09:31:14.697Z,21.93
2022-10-17T09:33:54.894Z,21.94
2022-10-17T09:36:34.375Z,21.96
2022-10-17T09:39:04.099Z,21.93
2022-10-17T09:41:50.502Z,21.86
2022-10-17T09:44:32.047Z,21.86
2022-10-17T09:47:39.229Z,21.79
2022-10-17T09:50:10.935Z,21.77
2022-10-17T09:52:41.024Z,21.77
2022-10-17T09:55:16.828Z,21.74
2022-10-17T09:57:59.183Z,21.71
2022-10-17T10:00:31.445Z,21.70
2022-10-17T10:03:18.281Z,21.69
2022-10-17T10:06:03.117Z,21.73
2022-10-17T10:08:34.377Z,21.80
2022-10-17T10:11:13.396Z,21.86
2022-10-17T10:13:40.431Z,21.92
2022-10-17T10:16:18.365Z,21.98
2022-10-17T10:18:47.445Z,22.01
2022-10-17T10:21:20.099Z,22.06
2022-10-17T10:24:03.342Z,22.12
2022-10-17T10:26:35.872Z,22.15
2022-10-17T10:29:06.046Z,22.20
2022-10-17T10:31:37.564Z,22.24
2022-10-17T10:34:24.199Z,22.24
2022-10-17T10:36:58.154Z,22.29
2022-10-17T10:39:45.312Z,22.37
2022-10-17T10:42:29.091Z,22.42
2022-10-17T10:45:00.004Z,22.44
2022-10-17T10:47:31.197Z,22.44
2022-10-17T10:50:16.882Z,22.46
2022-10-17T10:52:48.129Z,22.55
2022-10-17T10:55:20.206Z,22.59
2022-10-17T10:57:47.700Z,22.62
2022-10-17T11:00:21.677Z,22.69
2022-10-17T11:02:52.951Z,22.76
2022-10-17T11:05:34.932Z,22.83
2022-10-17T11:08:37.056Z,22.90
2022-10-17T11:11:18.111Z,22.94
2022-10-17T11:14:11.669Z,22.98
2022-10-17T11:16:46.589Z,23.02
2022-10-17T11:19:26.137Z,23.04
2022-10-17T11:22:37.564Z,23.12
2022-10-17T11:25:14.397Z,23.16
2022-10-17T11:27:40.922Z,23.18
2022-10-17T11:30:12.892Z,23.19
2022-10-17T11:33:08.725Z,23.20
2022-10-17T11:35:40.559Z,23.23
2022-10-17T11:38:16.188Z,23.24
2022-10-17T11:40:46.670Z,23.24
2022-10-17T11:43:25.636Z,23.28
2022-10-17T11:46:02.793Z,23.31
2022-10-17T11:48:34.613Z,23.35
2022-10-17T11:54:04.589Z,23.33
2022-10-17T11:56:55.971Z,23.29
2022-10-17T11:59:34.653Z,23.22
2022-10-17T12:02:13.099Z,23.18
2022-10-17T12:04:49.806Z,23.14
2022-10-17T12:07:48.893Z,23.05
2022-10-17T12:10:26.981Z,22.96
2022-10-17T12:12:53.501Z,22.89
2022-10-17T12:15:19.963Z,22.83
2022-10-17T12:17:55.031Z,22.80
2022-10-17T12:20:24.381Z,22.82
2022-10-17T12:22:51.233Z,22.86
2022-10-17T12:25:31.548Z,22.90
2022-10-17T12:28:21.189Z,22.96
2022-10-17T12:31:00.060Z,23.02
2022-10-17T12:33:50.177Z,23.07
2022-10-17T12:36:17.071Z,23.10
2022-10-17T12:38:51.234Z,23.15
2022-10-17T12:41:44.789Z,23.16
2022-10-17T12:44:14.510Z,23.18
2022-10-17T12:46:45.665Z,23.19
2022-10-17T12:49:38.658Z,23.22
2022-10-17T12:52:11.261Z,23.26
2022-10-17T12:54:47.755Z,23.31
2022-10-17T12:57:35.442Z,23.35
2022-10-17T13:00:24.201Z,23.37
2022-10-17T13:02:54.287Z,23.41
2022-10-17T13:05:23.821Z,23.46
2022-10-17T13:07:52.226Z,23.47
2022-10-17T13:10:24.907Z,23.45
2022-10-17T13:12:54.634Z,23.45
2022-10-17T13:15:21.388Z,23.43
2022-10-17T13:17:56.135Z,23.38
2022-10-17T13:20:29.072Z,23.34
2022-10-17T13:22:58.946Z,23.34
2022-10-17T13:25:27.072Z,23.34
2022-10-17T13:28:04.942Z,23.36
2022-10-17T13:30:34.110Z,23.39
2022-10-17T13:33:01.596Z,23.40
2022-10-17T13:35:58.813Z,23.39
2022-10-17T13:38:28.290Z,23.35
2022-10-17T13:41:01.769Z,23.33
2022-10-17T13:43:38.762Z,23.28
2022-10-17T13:46:25.626Z,23.25
2022-10-17T13:48:52.773Z,23.22
2022-10-17T13:51:19.993Z,23.18
2022-10-17T13:53:46.547Z,23.15
2022-10-17T13:56:29.875Z,23.15
2022-10-17T13:58:59.255Z,23.10
2022-10-17T14:01:27.647Z,23.06
2022-10-17T14:04:07.729Z,23.05
2022-10-17T14:06:43.945Z,23.03
2022-10-17T14:09:22.718Z,23.01
2022-10-17T14:12:02.375Z,23.00
2022-10-17T14:14:30.429Z,22.97
2022-10-17T14:17:16.008Z,22.96
2022-10-17T14:19:46.008Z,22.92
2022-10-17T14:22:26.641Z,22.90
2022-10-17T14:24:53.647Z,22.88
2022-10-17T14:27:26.080Z,22.84
2022-10-17T14:29:54.192Z,22.79
2022-10-17T14:32:21.649Z,22.76
2022-10-17T14:34:55.197Z,22.75
2022-10-17T14:37:33.491Z,22.68
2022-10-17T14:40:01.216Z,22.65
2022-10-17T14:42:27.790Z,22.63
2022-10-17T14:44:56.035Z,22.60
2022-10-17T14:50:12.983Z,22.51
2022-10-17T14:52:40.972Z,22.48
2022-10-17T14:55:37.920Z,22.43
2022-10-17T14:58:18.248Z,22.39
2022-10-17T15:00:44.853Z,22.35
2022-10-17T15:03:11.476Z,22.30
2022-10-17T15:05:38.145Z,22.23
2022-10-17T15:08:09.301Z,22.16
2022-10-17T15:10:36.961Z,22.09
2022-10-17T15:13:26.723Z,22.06
2022-10-17T15:15:52.306Z,21.98
2022-10-17T15:18:19.383Z,21.94
2022-10-17T15:20:45.973Z,21.90
2022-10-17T15:23:12.502Z,21.88
2022-10-17T15:25:39.257Z,21.89
2022-10-17T15:28:05.884Z,21.91
2022-10-17T15:30:35.754Z,21.91
2022-10-17T15:33:02.318Z,21.86
2022-10-17T15:35:29.071Z,21.80
2022-10-17T15:37:55.704Z,21.77
2022-10-17T15:40:31.206Z,21.75
2022-10-17T15:42:58.099Z,21.68
2022-10-17T15:45:25.075Z,21.64
2022-10-17T15:47:57.445Z,21.61
2022-10-17T15:50:23.962Z,21.57
2022-10-17T15:52:53.640Z,21.54
2022-10-17T15:55:20.244Z,21.51
2022-10-17T15:57:47.715Z,21.51
2022-10-17T16:00:24.042Z,21.48
2022-10-17T16:02:50.963Z,21.45
2022-10-17T16:05:23.274Z,21.44
2022-10-17T16:07:50.084Z,21.44
2022-10-17T16:10:17.348Z,21.44
2022-10-17T16:12:44.597Z,21.42
2022-10-17T16:15:17.130Z,21.42
2022-10-17T16:17:43.958Z,21.40
2022-10-17T16:20:12.001Z,21.36
2022-10-17T16:22:40.636Z,21.34
2022-10-17T16:25:19.393Z,21.32
2022-10-17T16:27:50.109Z,21.29
2022-10-17T16:30:16.892Z,21.27
2022-10-17T16:32:43.851Z,21.25
2022-10-17T16:35:16.943Z,21.25
2022-10-17T16:37:43.612Z,21.21
2022-10-17T16:40:10.976Z,21.18
2022-10-17T16:42:37.575Z,21.17
2022-10-17T16:45:04.591Z,21.17
2022-10-17T16:47:31.151Z,21.16
2022-10-17T16:49:57.761Z,21.15
2022-10-17T16:52:24.459Z,21.15
2022-10-17T16:54:51.095Z,21.15
2022-10-17T16:57:17.589Z,21.14
2022-10-17T16:59:44.099Z,21.14
2022-10-17T17:02:12.009Z,21.14
2022-10-17T17:04:38.710Z,21.13
2022-10-17T17:07:05.342Z,21.12
2022-10-17T17:09:31.932Z,21.12
2022-10-17T17:11:58.449Z,21.09
2022-10-17T17:14:25.017Z,21.08
2022-10-17T17:16:51.560Z,21.07
2022-10-17T17:19:18.292Z,21.03
2022-10-17T17:21:50.086Z,21.00
2022-10-17T17:24:17.956Z,20.98
2022-10-17T17:26:44.653Z,20.95
2022-10-17T17:29:12.273Z,20.92
2022-10-17T17:31:42.018Z,20.88
2022-10-17T17:34:09.140Z,20.85
2022-10-17T17:36:37.875Z,20.82
2022-10-17T17:39:06.931Z,20.79
2022-10-17T17:41:33.690Z,20.74
2022-10-17T17:44:01.039Z,20.72
2022-10-17T17:46:27.766Z,20.68
2022-10-17T17:48:55.367Z,20.66
2022-10-17T17:51:28.344Z,20.65
2022-10-17T17:53:56.298Z,20.62
2022-10-17T17:56:25.575Z,20.61
2022-10-17T17:58:57.632Z,20.58
2022-10-17T18:01:25.962Z,20.56
2022-10-17T18:03:53.836Z,20.52
2022-10-17T18:06:21.208Z,20.48
2022-10-17T18:08:50.278Z,20.43
2022-10-17T18:11:19.639Z,20.38
2022-10-17T18:13:48.434Z,20.30
2022-10-17T18:16:16.810Z,20.24
2022-10-17T18:18:44.980Z,20.19
2022-10-17T18:21:12.916Z,20.15
2022-10-17T18:23:40.817Z,20.11
2022-10-17T18:26:07.576Z,20.05
2022-10-17T18:28:35.997Z,20.03
2022-10-17T18:31:24.226Z,20.00
2022-10-17T18:33:55.270Z,19.97
2022-10-17T18:36:22.249Z,19.94
2022-10-17T18:38:49.254Z,19.92
2022-10-17T18:41:18.838Z,19.89
2022-10-17T18:43:46.997Z,19.85
2022-10-17T18:46:21.599Z,19.84
2022-10-17T18:48:49.247Z,19.81
2022-10-17T18:51:19.830Z,19.80
2022-10-17T18:53:49.126Z,19.77
2022-10-17T18:56:15.864Z,19.74
2022-10-17T18:58:42.624Z,19.71
2022-10-17T19:01:12.019Z,19.67
2022-10-17T19:03:38.596Z,19.63
2022-10-17T19:06:09.704Z,19.61
2022-10-17T19:08:37.024Z,19.57
2022-10-17T19:11:33.478Z,19.55
2022-10-17T19:14:14.133Z,19.51
2022-10-17T19:16:46.139Z,19.48
2022-10-17T19:19:24.563Z,19.45
2022-10-17T19:21:51.808Z,19.42
2022-10-17T19:24:21.834Z,19.41
2022-10-17T19:26:55.942Z,19.38
2022-10-17T19:29:24.794Z,19.36
2022-10-17T19:31:52.028Z,19.35
2022-10-17T19:34:19.078Z,19.36
2022-10-17T19:36:46.175Z,19.35
2022-10-17T19:39:16.092Z,19.35
2022-10-17T19:41:44.176Z,19.33
2022-10-17T19:44:11.163Z,19.31
2022-10-17T19:46:37.979Z,19.30
2022-10-17T19:49:05.231Z,19.29
2022-10-17T19:51:32.367Z,19.29
2022-10-17T19:54:00.580Z,19.31
2022-10-17T19:56:30.134Z,19.33
2022-10-17T19:58:57.248Z,19.33
2022-10-17T20:01:25.946Z,19.33
2022-10-17T20:03:53.166Z,19.33
2022-10-17T20:06:20.702Z,19.32
2022-10-17T20:08:47.271Z,19.33
2022-10-17T20:11:16.155Z,19.33
2022-10-17T20:13:42.762Z,19.32
2022-10-17T20:16:12.279Z,19.29
2022-10-17T20:18:40.841Z,19.25
2022-10-17T20:21:10.914Z,19.25
2022-10-17T20:23:37.781Z,19.21
2022-10-17T20:26:25.479Z,19.18
2022-10-17T20:28:53.534Z,19.11
2022-10-17T20:31:20.756Z,19.07
2022-10-17T20:33:47.358Z,19.03
2022-10-17T20:36:16.562Z,19.00
2022-10-17T20:38:43.097Z,18.98
2022-10-17T20:41:10.533Z,18.96
2022-10-17T20:43:38.432Z,18.94
2022-10-17T20:46:22.796Z,18.94
2022-10-17T20:48:53.784Z,18.92
2022-10-17T20:51:21.024Z,18.90
2022-10-17T20:53:48.244Z,18.88
2022-10-17T20:56:20.921Z,18.85
2022-10-17T20:58:52.171Z,18.86
2022-10-17T21:01:18.862Z,18.83
2022-10-17T21:03:46.676Z,18.83
2022-10-17T21:06:16.386Z,18.82
2022-10-17T21:08:43.224Z,18.79
2022-10-17T21:11:13.340Z,18.76
2022-10-17T21:13:40.493Z,18.73
2022-10-17T21:16:09.277Z,18.73
2022-10-17T21:18:37.382Z,18.72
2022-10-17T21:21:26.730Z,18.72
2022-10-17T21:23:58.548Z,18.72
2022-10-17T21:26:25.143Z,18.69
2022-10-17T21:28:51.763Z,18.68
2022-10-17T21:31:25.787Z,18.67
2022-10-17T21:33:55.712Z,18.68
2022-10-17T21:36:23.505Z,18.65
2022-10-17T21:38:52.167Z,18.64
2022-10-17T21:41:27.572Z,18.61
2022-10-17T21:43:56.144Z,18.59
2022-10-17T21:46:23.085Z,18.55
2022-10-17T21:48:51.757Z,18.51
2022-10-17T21:51:21.311Z,18.48
2022-10-17T21:53:48.551Z,18.46
2022-10-17T21:56:16.994Z,18.45
2022-10-17T21:58:44.107Z,18.44
2022-10-17T22:01:22.399Z,18.42
2022-10-17T22:03:51.796Z,18.41
2022-10-17T22:09:13.727Z,18.40
2022-10-17T22:11:40.843Z,18.41
2022-10-17T22:14:11.273Z,18.39
2022-10-17T22:16:38.448Z,18.37
2022-10-17T22:19:06.842Z,18.34
2022-10-17T22:21:35.386Z,18.35
2022-10-17T22:24:04.505Z,18.35
2022-10-17T22:26:32.389Z,18.34
2022-10-17T22:28:59.014Z,18.32
2022-10-17T22:31:25.984Z,18.28
2022-10-17T22:33:52.545Z,18.28
2022-10-17T22:36:19.506Z,18.26
2022-10-17T22:38:46.088Z,18.23
2022-10-17T22:41:12.638Z,18.22
2022-10-17T22:43:39.140Z,18.20
2022-10-17T22:46:06.699Z,18.19
2022-10-17T22:48:33.884Z,18.18
2022-10-17T22:51:00.619Z,18.16
2022-10-17T22:53:27.432Z,18.15
2022-10-17T22:55:58.700Z,18.16
2022-10-17T22:58:25.870Z,18.13
2022-10-17T23:00:53.393Z,18.13
2022-10-17T23:03:21.119Z,18.12
2022-10-17T23:05:47.919Z,18.14
2022-10-17T23:08:15.190Z,18.15
2022-10-17T23:10:42.005Z,18.16
2022-10-17T23:13:08.505Z,18.17
2022-10-17T23:15:35.135Z,18.16
2022-10-17T23:18:02.389Z,18.16
2022-10-17T23:20:29.886Z,18.15
2022-10-17T23:22:56.901Z,18.15
2022-10-17T23:25:23.606Z,18.13
2022-10-17T23:27:50.228Z,18.12
2022-10-17T23:30:17.079Z,18.14
2022-10-17T23:32:43.765Z,18.18
2022-10-17T23:35:10.827Z,18.21
2022-10-17T23:37:37.367Z,18.19
2022-10-17T23:40:05.471Z,18.18
2022-10-17T23:42:32.138Z,18.17
2022-10-17T23:44:58.655Z,18.17
2022-10-17T23:47:25.206Z,18.14
2022-10-17T23:49:51.733Z,18.12
2022-10-17T23:52:18.247Z,18.11
2022-10-17T23:54:44.835Z,18.07
2022-10-17T23:57:11.382Z,18.04
2022-10-17T23:59:37.871Z,18.03
